Time;durP1;ratioP1;P1;durP2;ratioP2;P2;SDS_P1;SDS_P2;PMS_P1;PMS_P2;Temp;Humidity;BMP_temperature;BMP_pressure;BME280_temperature;BME280_humidity;BME280_pressure;Samples;Min_cycle;Max_cycle;Signal;HPM_P1;HPM_P2
2022/09/09 00:00:41;;;;;;;1.55;0.68;;;24.30;46.20;;;;;;5107088;27;45303;-85
2022/09/09 00:03:12;;;;;;;2.35;0.77;;;24.30;46.20;;;;;;5110654;27;45200;-85
2022/09/09 00:05:42;;;;;;;0.73;0.73;;;24.30;46.10;;;;;;5110692;27;45803;-86
2022/09/09 00:08:09;;;;;;;0.75;0.70;;;24.30;46.30;;;;;;5109715;27;45231;-86
2022/09/09 00:10:39;;;;;;;0.98;0.80;;;24.30;46.20;;;;;;5110487;27;45314;-86
2022/09/09 00:13:14;;;;;;;0.55;0.55;;;24.20;46.20;;;;;;5110660;27;45620;-85
2022/09/09 00:15:44;;;;;;;1.63;0.88;;;24.20;46.30;;;;;;5110697;27;45663;-86
2022/09/09 00:18:18;;;;;;;0.98;0.73;;;24.20;46.30;;;;;;5110766;27;45371;-85
2022/09/09 00:20:47;;;;;;;0.80;0.80;;;24.20;46.30;;;;;;5108012;27;45187;-85
2022/09/09 00:23:19;;;;;;;0.93;0.70;;;24.20;46.30;;;;;;5110833;27;45500;-86
2022/09/09 00:25:49;;;;;;;1.63;0.80;;;24.20;46.40;;;;;;5110114;27;45646;-86
2022/09/09 00:28:19;;;;;;;1.10;0.85;;;24.20;46.40;;;;;;5107254;27;45354;-85
2022/09/09 00:30:46;;;;;;;0.63;0.60;;;24.20;47.00;;;;;;5106956;27;45293;-85
2022/09/09 00:33:15;;;;;;;0.63;0.60;;;24.20;46.40;;;;;;5110504;27;45219;-86
2022/09/09 00:35:43;;;;;;;1.85;0.80;;;24.20;46.40;;;;;;5109707;27;45347;-86
2022/09/09 00:38:13;;;;;;;0.55;0.55;;;24.10;46.40;;;;;;5110040;27;45306;-85
2022/09/09 00:40:42;;;;;;;0.57;0.57;;;24.10;46.40;;;;;;5107735;27;45283;-86
2022/09/09 00:43:22;;;;;;;0.63;0.63;;;24.10;46.40;;;;;;5107514;27;45298;-85
2022/09/09 00:46:23;;;;;;;1.02;0.90;;;24.10;46.40;;;;;;5106902;27;46525;-86
2022/09/09 00:48:55;;;;;;;0.77;0.70;;;24.10;46.50;;;;;;5064974;27;45174;-86
2022/09/09 00:51:26;;;;;;;1.45;0.80;;;24.10;46.50;;;;;;5109277;27;45215;-86
2022/09/09 00:54:14;;;;;;;0.80;0.77;;;24.10;46.50;;;;;;5109862;27;44955;-86
2022/09/09 00:56:47;;;;;;;0.82;0.80;;;24.10;46.50;;;;;;5109443;27;45477;-86
2022/09/09 00:59:20;;;;;;;0.98;0.65;;;24.10;46.60;;;;;;5109595;27;45359;-86
2022/09/09 01:01:46;;;;;;;0.80;0.80;;;24.00;46.50;;;;;;5106663;27;45313;-87
2022/09/09 01:04:17;;;;;;;0.90;0.80;;;24.00;46.60;;;;;;5109917;27;45260;-86
2022/09/09 01:06:44;;;;;;;1.65;0.70;;;24.00;46.60;;;;;;5109362;27;46708;-85
2022/09/09 01:09:15;;;;;;;0.80;0.80;;;24.00;46.60;;;;;;5109864;27;45512;-86
2022/09/09 01:11:50;;;;;;;0.70;0.70;;;24.00;46.60;;;;;;5109949;27;45270;-86
2022/09/09 01:14:25;;;;;;;0.50;0.50;;;24.00;46.60;;;;;;5106078;27;45232;-86
2022/09/09 01:16:52;;;;;;;2.08;0.70;;;24.00;46.70;;;;;;5109272;27;46576;-86
2022/09/09 01:19:25;;;;;;;0.95;0.60;;;24.00;46.60;;;;;;5109831;27;45250;-87
2022/09/09 01:21:56;;;;;;;1.20;0.75;;;24.00;46.70;;;;;;5109668;27;45203;-86
2022/09/09 01:24:25;;;;;;;2.53;0.63;;;24.00;46.80;;;;;;5109875;27;45280;-86
2022/09/09 01:26:54;;;;;;;0.98;0.70;;;24.00;46.70;;;;;;5109212;27;46684;-87
2022/09/09 01:29:22;;;;;;;0.60;0.60;;;24.00;46.70;;;;;;5106813;27;45224;-86
2022/09/09 01:31:54;;;;;;;1.63;0.70;;;24.00;46.80;;;;;;5106858;27;45298;-86
2022/09/09 01:34:21;;;;;;;0.80;0.63;;;23.90;46.80;;;;;;5109464;27;45193;-86
2022/09/09 01:36:51;;;;;;;0.82;0.70;;;24.00;46.80;;;;;;5109240;27;45560;-86
2022/09/09 01:39:18;;;;;;;0.90;0.80;;;24.00;46.80;;;;;;5109102;27;45214;-86
2022/09/09 01:41:45;;;;;;;0.52;0.52;;;24.00;46.70;;;;;;5109701;27;45236;-86
2022/09/09 01:44:13;;;;;;;1.30;0.70;;;23.90;46.70;;;;;;5106880;27;45314;-85
2022/09/09 01:46:40;;;;;;;1.23;0.68;;;23.90;46.70;;;;;;5106178;27;45438;-86
2022/09/09 01:49:07;;;;;;;0.70;0.70;;;23.90;46.80;;;;;;5108687;27;45260;-86
2022/09/09 01:51:34;;;;;;;0.50;0.50;;;23.90;46.80;;;;;;5109028;27;45161;-86
2022/09/09 01:54:01;;;;;;;1.05;0.70;;;23.90;46.80;;;;;;5109489;27;45411;-85
2022/09/09 01:56:36;;;;;;;0.90;0.60;;;23.90;46.90;;;;;;5108873;27;45724;-86
2022/09/09 01:59:12;;;;;;;0.60;0.60;;;23.90;46.90;;;;;;5108887;27;45291;-85
2022/09/09 02:01:47;;;;;;;0.75;0.63;;;23.90;46.90;;;;;;5109277;27;45452;-85
2022/09/09 02:04:21;;;;;;;0.63;0.55;;;23.90;47.00;;;;;;5109206;27;45502;-87
2022/09/09 02:06:48;;;;;;;0.75;0.70;;;23.90;47.00;;;;;;5109056;27;45407;-86
2022/09/09 02:09:15;;;;;;;0.60;0.60;;;23.80;47.00;;;;;;5108609;27;45306;-85
2022/09/09 02:11:42;;;;;;;0.95;0.70;;;23.80;47.00;;;;;;5108592;27;45264;-86
2022/09/09 02:14:11;;;;;;;0.73;0.73;;;23.80;47.10;;;;;;5108857;27;45460;-85
2022/09/09 02:16:39;;;;;;;0.55;0.55;;;23.80;47.00;;;;;;5107819;27;45346;-86
2022/09/09 02:19:12;;;;;;;0.88;0.80;;;23.80;47.00;;;;;;5108870;27;45315;-86
2022/09/09 02:21:39;;;;;;;0.63;0.52;;;23.80;47.10;;;;;;5108798;27;45314;-86
2022/09/09 02:24:08;;;;;;;0.70;0.60;;;23.80;47.10;;;;;;5108548;27;45314;-87
2022/09/09 02:26:35;;;;;;;1.50;0.68;;;23.80;47.20;;;;;;5108191;27;45455;-86
2022/09/09 02:29:03;;;;;;;1.15;0.60;;;23.80;47.10;;;;;;5108390;27;45319;-86
2022/09/09 02:31:30;;;;;;;0.75;0.68;;;23.80;47.10;;;;;;5108449;27;45294;-86
2022/09/09 02:33:58;;;;;;;1.75;0.60;;;23.80;47.20;;;;;;5108640;27;45253;-86
2022/09/09 02:36:28;;;;;;;0.70;0.63;;;23.70;47.20;;;;;;5105716;27;46284;-85
2022/09/09 02:38:55;;;;;;;0.60;0.60;;;23.70;47.20;;;;;;5108448;27;44763;-86
2022/09/09 02:41:25;;;;;;;1.50;0.63;;;23.70;47.20;;;;;;5108533;27;45217;-86
2022/09/09 02:43:52;;;;;;;0.60;0.60;;;23.70;47.20;;;;;;5108648;27;45302;-86
2022/09/09 02:46:33;;;;;;;0.77;0.77;;;23.70;47.20;;;;;;5108190;27;46813;-85
2022/09/09 02:49:02;;;;;;;0.50;0.50;;;23.70;47.30;;;;;;5108502;27;45191;-86
2022/09/09 02:51:36;;;;;;;0.50;0.50;;;23.70;47.20;;;;;;5108423;27;45222;-87
2022/09/09 02:54:08;;;;;;;1.20;0.70;;;23.70;47.30;;;;;;5108314;27;45394;-87
2022/09/09 02:56:37;;;;;;;0.60;0.60;;;23.70;47.30;;;;;;5107931;27;45607;-86
2022/09/09 02:59:04;;;;;;;1.20;0.60;;;23.70;47.30;;;;;;5108015;27;45283;-87
2022/09/09 03:01:31;;;;;;;0.70;0.70;;;23.70;47.30;;;;;;5105514;27;45225;-87
2022/09/09 03:03:58;;;;;;;0.55;0.50;;;23.70;47.40;;;;;;5107998;27;45196;-86
2022/09/09 03:06:25;;;;;;;0.57;0.50;;;23.70;47.40;;;;;;5108001;27;47314;-87
2022/09/09 03:08:53;;;;;;;1.27;0.47;;;23.60;47.40;;;;;;5108201;27;45334;-87
2022/09/09 03:11:20;;;;;;;1.15;0.68;;;23.60;47.40;;;;;;5105499;27;45176;-86
2022/09/09 03:13:48;;;;;;;0.93;0.50;;;23.60;47.40;;;;;;5108578;27;45372;-86
2022/09/09 03:16:15;;;;;;;0.80;0.75;;;23.60;47.40;;;;;;5107661;27;46849;-87
2022/09/09 03:18:45;;;;;;;1.02;0.77;;;23.60;47.40;;;;;;5107404;27;45302;-85
2022/09/09 03:21:12;;;;;;;0.43;0.43;;;23.60;47.40;;;;;;5106995;27;45290;-87
2022/09/09 03:23:39;;;;;;;1.85;0.50;;;23.60;47.40;;;;;;5108186;27;45244;-87
2022/09/09 03:26:07;;;;;;;0.57;0.57;;;23.60;47.40;;;;;;5107483;27;45476;-86
2022/09/09 03:28:35;;;;;;;0.88;0.70;;;23.60;47.40;;;;;;5107737;27;45221;-86
2022/09/09 03:31:02;;;;;;;0.93;0.70;;;23.60;47.40;;;;;;5107876;27;45247;-86
2022/09/09 03:33:29;;;;;;;0.50;0.50;;;23.60;47.50;;;;;;5107660;27;45235;-86
2022/09/09 03:35:56;;;;;;;0.95;0.60;;;23.60;47.50;;;;;;5107338;27;47082;-87
2022/09/09 03:38:23;;;;;;;1.95;0.60;;;23.60;47.50;;;;;;5111012;27;45280;-87
2022/09/09 03:40:54;;;;;;;1.48;0.60;;;23.50;47.50;;;;;;5108514;27;45286;-86
2022/09/09 03:43:23;;;;;;;0.98;0.40;;;23.50;47.50;;;;;;5111600;27;45664;-86
2022/09/09 03:45:50;;;;;;;0.75;0.60;;;23.50;47.50;;;;;;5111026;27;46284;-87
2022/09/09 03:48:17;;;;;;;0.57;0.57;;;23.50;47.50;;;;;;5110917;27;45407;-86
2022/09/09 03:50:46;;;;;;;1.23;0.80;;;23.50;47.60;;;;;;5111023;27;45208;-86
2022/09/09 03:53:13;;;;;;;1.20;0.50;;;23.50;47.60;;;;;;5108584;27;45257;-86
2022/09/09 03:55:41;;;;;;;0.73;0.63;;;23.50;47.60;;;;;;5110479;27;46660;-85
2022/09/09 03:58:08;;;;;;;0.40;0.40;;;23.50;47.60;;;;;;5108143;27;45192;-86
2022/09/09 04:00:36;;;;;;;0.60;0.60;;;23.50;47.60;;;;;;5110921;27;45286;-85
2022/09/09 04:03:03;;;;;;;0.73;0.50;;;23.50;47.60;;;;;;5108547;27;45435;-86
2022/09/09 04:05:30;;;;;;;0.50;0.50;;;23.50;47.60;;;;;;5111268;27;48582;-87
2022/09/09 04:07:57;;;;;;;0.60;0.50;;;23.50;47.60;;;;;;5111049;27;45394;-88
2022/09/09 04:10:24;;;;;;;0.50;0.50;;;23.50;47.60;;;;;;5111095;27;45245;-87
2022/09/09 04:12:52;;;;;;;0.60;0.52;;;23.50;47.60;;;;;;5110463;27;45451;-86
2022/09/09 04:15:19;;;;;;;0.52;0.52;;;23.50;47.60;;;;;;5111236;27;45319;-86
2022/09/09 04:18:00;;;;;;;0.45;0.45;;;23.50;47.60;;;;;;5110814;27;45366;-87
2022/09/09 04:20:27;;;;;;;0.65;0.50;;;23.40;47.60;;;;;;5111310;27;45213;-87
2022/09/09 04:22:54;;;;;;;0.50;0.50;;;23.40;47.60;;;;;;5111657;27;45311;-86
2022/09/09 04:25:20;;;;;;;0.70;0.70;;;23.50;47.70;;;;;;5110884;27;45311;-86
2022/09/09 04:27:48;;;;;;;1.10;0.60;;;23.50;47.70;;;;;;5110172;27;45269;-86
2022/09/09 04:30:15;;;;;;;0.63;0.60;;;23.50;47.70;;;;;;5111347;27;45147;-86
2022/09/09 04:32:41;;;;;;;1.15;0.57;;;23.40;47.60;;;;;;5111128;27;45287;-85
2022/09/09 04:35:10;;;;;;;0.50;0.45;;;23.40;47.60;;;;;;5108177;27;45397;-86
2022/09/09 04:37:37;;;;;;;0.63;0.50;;;23.40;47.70;;;;;;5110603;27;45939;-85
2022/09/09 04:40:04;;;;;;;0.63;0.57;;;23.40;47.70;;;;;;5111011;27;45204;-86
2022/09/09 04:42:31;;;;;;;0.60;0.50;;;23.40;47.70;;;;;;5111095;27;45219;-86
2022/09/09 04:44:58;;;;;;;0.80;0.70;;;23.40;47.70;;;;;;5108126;27;45439;-85
2022/09/09 04:47:25;;;;;;;1.02;0.60;;;23.40;47.70;;;;;;5110793;27;45334;-87
2022/09/09 04:49:54;;;;;;;0.68;0.60;;;23.40;47.70;;;;;;5110775;27;45398;-87
2022/09/09 04:52:22;;;;;;;0.50;0.50;;;23.40;47.70;;;;;;5110996;27;45232;-87
2022/09/09 04:54:49;;;;;;;0.50;0.50;;;23.40;47.70;;;;;;5110669;27;46637;-87
2022/09/09 04:57:16;;;;;;;0.52;0.52;;;23.40;47.80;;;;;;5110633;27;45251;-86
2022/09/09 04:59:43;;;;;;;0.50;0.50;;;23.40;47.70;;;;;;5110742;27;45290;-86
2022/09/09 05:02:10;;;;;;;0.57;0.57;;;23.40;48.30;;;;;;5110972;27;45184;-86
2022/09/09 05:04:37;;;;;;;0.60;0.60;;;23.30;47.70;;;;;;5110142;27;47739;-84
2022/09/09 05:07:04;;;;;;;0.60;0.60;;;23.30;48.30;;;;;;5107236;27;45208;-85
2022/09/09 05:09:32;;;;;;;0.90;0.60;;;23.30;47.80;;;;;;5110770;27;45276;-87
2022/09/09 05:11:59;;;;;;;0.98;0.60;;;23.30;47.80;;;;;;5107609;27;45283;-86
2022/09/09 05:14:26;;;;;;;0.63;0.50;;;23.30;47.80;;;;;;5107473;27;46295;-87
2022/09/09 05:16:53;;;;;;;0.80;0.60;;;23.30;47.70;;;;;;5110263;27;45164;-86
2022/09/09 05:19:20;;;;;;;0.57;0.57;;;23.40;47.80;;;;;;5110560;27;45253;-86
2022/09/09 05:21:47;;;;;;;0.85;0.50;;;23.30;47.80;;;;;;5110738;27;45386;-86
2022/09/09 05:24:14;;;;;;;0.73;0.50;;;23.30;47.80;;;;;;5109654;27;45421;-87
2022/09/09 05:26:42;;;;;;;0.85;0.50;;;23.30;47.80;;;;;;5109679;27;45154;-86
2022/09/09 05:29:09;;;;;;;0.50;0.50;;;23.30;47.80;;;;;;5110117;27;45143;-86
2022/09/09 05:31:36;;;;;;;0.95;0.50;;;23.30;48.50;;;;;;5107498;27;45295;-87
2022/09/09 05:34:03;;;;;;;0.50;0.50;;;23.30;47.80;;;;;;5109531;27;47393;-86
2022/09/09 05:36:30;;;;;;;0.57;0.57;;;23.30;47.90;;;;;;5107422;27;45334;-86
2022/09/09 05:38:57;;;;;;;0.50;0.50;;;23.30;47.90;;;;;;5109862;27;45377;-86
2022/09/09 05:41:24;;;;;;;0.63;0.63;;;23.30;47.90;;;;;;5110092;27;45175;-86
2022/09/09 05:43:52;;;;;;;0.45;0.45;;;23.30;47.90;;;;;;5109739;27;45376;-86
2022/09/09 05:46:20;;;;;;;0.30;0.30;;;23.30;47.90;;;;;;5109838;27;45317;-86
2022/09/09 05:48:47;;;;;;;0.55;0.40;;;23.30;47.90;;;;;;5109824;27;45206;-86
2022/09/09 05:51:16;;;;;;;0.40;0.40;;;23.30;47.90;;;;;;5110117;27;45442;-87
2022/09/09 05:53:43;;;;;;;0.52;0.43;;;23.30;47.90;;;;;;5109389;27;45625;-83
2022/09/09 05:56:11;;;;;;;0.55;0.55;;;23.20;47.90;;;;;;5108802;27;45287;-86
2022/09/09 05:58:38;;;;;;;0.45;0.40;;;23.30;47.90;;;;;;5109279;27;45201;-87
2022/09/09 06:01:08;;;;;;;0.75;0.50;;;23.20;48.50;;;;;;5109479;27;45205;-86
2022/09/09 06:03:35;;;;;;;0.50;0.50;;;23.20;47.90;;;;;;5107090;27;45430;-87
2022/09/09 06:06:05;;;;;;;0.47;0.47;;;23.20;48.00;;;;;;5109419;27;45216;-86
2022/09/09 06:08:32;;;;;;;0.57;0.55;;;23.20;48.00;;;;;;5109569;27;45330;-86
2022/09/09 06:11:03;;;;;;;0.80;0.60;;;23.30;48.10;;;;;;5109813;27;45450;-86
2022/09/09 06:13:30;;;;;;;0.45;0.45;;;23.20;47.90;;;;;;5106698;27;45180;-85
2022/09/09 06:15:58;;;;;;;0.40;0.40;;;23.20;48.00;;;;;;5106650;27;45340;-87
2022/09/09 06:18:26;;;;;;;0.55;0.35;;;23.20;48.00;;;;;;5108875;27;45304;-86
2022/09/09 06:20:57;;;;;;;0.40;0.40;;;23.20;48.00;;;;;;5109431;27;45121;-85
2022/09/09 06:23:25;;;;;;;0.30;0.30;;;23.30;48.00;;;;;;5109272;27;45426;-87
2022/09/09 06:25:51;;;;;;;0.40;0.40;;;23.30;48.00;;;;;;5109289;27;45146;-86
2022/09/09 06:28:19;;;;;;;0.45;0.45;;;23.20;48.00;;;;;;5109563;27;45087;-87
2022/09/09 06:30:45;;;;;;;0.47;0.45;;;23.30;48.00;;;;;;5109803;27;45430;-86
2022/09/09 06:33:12;;;;;;;0.45;0.45;;;23.30;48.00;;;;;;5109136;27;45456;-87
2022/09/09 06:35:40;;;;;;;0.50;0.50;;;23.30;48.50;;;;;;5108930;27;45428;-85
2022/09/09 06:38:08;;;;;;;0.50;0.50;;;23.30;47.90;;;;;;5108493;27;45207;-86
2022/09/09 06:40:35;;;;;;;0.68;0.40;;;23.30;47.90;;;;;;5109151;27;45188;-88
2022/09/09 06:43:02;;;;;;;1.27;0.60;;;23.30;47.90;;;;;;5106346;27;45773;-86
2022/09/09 06:45:29;;;;;;;0.40;0.40;;;23.30;47.90;;;;;;5108697;27;45293;-88
2022/09/09 06:47:56;;;;;;;0.50;0.50;;;23.30;48.00;;;;;;5109047;27;45280;-85
2022/09/09 06:50:24;;;;;;;0.77;0.50;;;23.30;47.90;;;;;;5108559;27;45175;-87
2022/09/09 06:52:53;;;;;;;0.60;0.50;;;23.30;48.10;;;;;;5108164;27;45407;-86
2022/09/09 06:55:20;;;;;;;0.55;0.55;;;23.30;48.10;;;;;;5110747;27;45362;-86
2022/09/09 06:57:48;;;;;;;0.60;0.60;;;23.30;48.10;;;;;;5110353;27;45130;-87
2022/09/09 07:00:15;;;;;;;0.50;0.50;;;23.30;48.20;;;;;;5111121;27;45457;-86
2022/09/09 07:02:42;;;;;;;0.90;0.50;;;23.30;48.20;;;;;;5109435;27;45418;-87
2022/09/09 07:05:09;;;;;;;1.33;0.50;;;23.30;48.20;;;;;;5106079;27;45350;-86
2022/09/09 07:07:36;;;;;;;2.00;0.60;;;23.40;48.20;;;;;;5106049;27;45278;-86
2022/09/09 07:10:07;;;;;;;1.10;0.50;;;23.40;48.30;;;;;;5106141;27;45234;-84
2022/09/09 07:12:34;;;;;;;0.93;0.47;;;23.40;48.30;;;;;;5106919;27;45620;-87
2022/09/09 07:15:01;;;;;;;2.05;0.63;;;23.40;48.40;;;;;;5109326;27;45356;-86
2022/09/09 07:17:28;;;;;;;1.45;0.77;;;23.40;48.40;;;;;;5108890;27;45208;-87
2022/09/09 07:19:56;;;;;;;0.98;0.63;;;23.40;48.60;;;;;;5109279;27;45129;-87
2022/09/09 07:22:23;;;;;;;1.00;0.40;;;23.30;48.60;;;;;;5108774;27;45295;-88
2022/09/09 07:24:50;;;;;;;1.02;0.60;;;23.40;48.60;;;;;;5107961;27;45306;-86
2022/09/09 07:27:18;;;;;;;2.35;0.82;;;23.40;48.60;;;;;;5107697;27;45518;-86
2022/09/09 07:29:45;;;;;;;0.50;0.50;;;23.40;48.60;;;;;;5108119;27;45127;-87
2022/09/09 07:32:12;;;;;;;0.60;0.60;;;23.40;48.70;;;;;;5105344;27;45661;-87
2022/09/09 07:34:39;;;;;;;0.68;0.57;;;23.40;49.30;;;;;;5107581;27;45354;-85
2022/09/09 07:37:06;;;;;;;2.20;0.60;;;23.40;48.70;;;;;;5109002;27;45286;-87
2022/09/09 07:39:33;;;;;;;0.95;0.73;;;23.40;48.60;;;;;;5108472;27;45235;-86
2022/09/09 07:42:00;;;;;;;1.92;0.57;;;23.40;48.70;;;;;;5107844;27;45385;-87
2022/09/09 07:44:29;;;;;;;0.52;0.50;;;23.50;48.70;;;;;;5108244;27;45302;-86
2022/09/09 07:46:55;;;;;;;0.90;0.60;;;23.50;48.70;;;;;;5102687;27;45374;-90
2022/09/09 07:49:24;;;;;;;2.47;0.73;;;23.50;49.30;;;;;;5095576;27;45691;-86
2022/09/09 07:51:50;;;;;;;1.65;0.60;;;23.50;50.50;;;;;;5087729;27;46818;-85
2022/09/09 07:54:20;;;;;;;2.92;0.73;;;23.40;50.80;;;;;;5096471;27;45294;-88
2022/09/09 07:56:47;;;;;;;2.03;0.73;;;23.40;50.80;;;;;;5096178;27;45344;-85
2022/09/09 07:59:14;;;;;;;2.15;0.65;;;23.40;51.20;;;;;;5094478;27;45114;-86
2022/09/09 08:01:43;;;;;;;1.90;0.88;;;23.40;51.10;;;;;;5105077;27;45449;-87
2022/09/09 08:04:15;;;;;;;4.15;0.90;;;23.30;51.30;;;;;;5122921;27;45310;-86
2022/09/09 08:06:43;;;;;;;3.70;0.93;;;23.30;51.30;;;;;;5114528;27;45217;-87
2022/09/09 08:09:10;;;;;;;2.55;0.88;;;23.30;51.30;;;;;;5128279;27;45409;-86
2022/09/09 08:11:37;;;;;;;1.40;1.00;;;23.30;52.10;;;;;;5129431;27;46403;-86
2022/09/09 08:14:04;;;;;;;2.58;1.30;;;23.30;51.50;;;;;;5129249;27;45208;-86
2022/09/09 08:16:32;;;;;;;4.13;1.33;;;23.30;51.40;;;;;;5128723;27;45293;-86
2022/09/09 08:19:00;;;;;;;2.63;1.10;;;23.30;51.50;;;;;;5129900;27;45537;-87
2022/09/09 08:21:32;;;;;;;2.72;1.00;;;23.30;51.50;;;;;;5129688;27;46544;-87
2022/09/09 08:24:00;;;;;;;2.78;1.20;;;23.30;51.50;;;;;;5132245;27;45334;-85
2022/09/09 08:26:29;;;;;;;3.95;1.55;;;23.30;51.60;;;;;;5132597;27;45298;-86
2022/09/09 08:28:57;;;;;;;4.28;1.27;;;23.40;51.70;;;;;;5131876;27;45183;-87
2022/09/09 08:31:27;;;;;;;2.75;1.23;;;23.30;51.80;;;;;;5133361;27;46939;-86
2022/09/09 08:33:54;;;;;;;2.80;1.40;;;23.30;52.00;;;;;;5133307;27;46162;-86
2022/09/09 08:36:23;;;;;;;1.77;1.30;;;23.30;51.80;;;;;;5131397;27;45161;-87
2022/09/09 08:38:54;;;;;;;3.75;1.27;;;23.40;52.20;;;;;;5109812;27;45199;-86
2022/09/09 08:41:41;;;;;;;2.97;0.98;;;23.40;52.10;;;;;;5093093;27;45555;-87
2022/09/09 08:44:10;;;;;;;3.80;1.45;;;23.40;52.20;;;;;;5110465;27;45314;-86
2022/09/09 08:46:51;;;;;;;3.40;1.20;;;23.40;52.00;;;;;;5110315;27;45351;-87
2022/09/09 08:49:32;;;;;;;3.22;1.00;;;23.40;51.90;;;;;;5110144;27;45710;-86
2022/09/09 08:52:01;;;;;;;1.58;1.05;;;23.40;51.70;;;;;;5107706;27;46462;-88
2022/09/09 08:54:28;;;;;;;4.57;1.20;;;23.40;52.30;;;;;;5109745;27;45229;-90
2022/09/09 08:56:56;;;;;;;3.67;1.05;;;23.40;52.10;;;;;;5111334;27;45275;-87
2022/09/09 08:59:24;;;;;;;0.95;0.80;;;23.40;51.50;;;;;;5114346;27;45469;-87
2022/09/09 09:02:01;;;;;;;1.30;1.00;;;23.50;51.70;;;;;;5121367;27;47692;-84
2022/09/09 09:04:51;;;;;;;3.40;1.08;;;23.50;51.60;;;;;;5118524;27;45306;-85
2022/09/09 09:07:25;;;;;;;2.92;1.25;;;23.50;51.50;;;;;;5130878;27;45199;-86
2022/09/09 09:09:58;;;;;;;3.78;1.20;;;23.60;52.20;;;;;;5130951;27;45460;-85
2022/09/09 09:12:26;;;;;;;1.63;1.30;;;23.60;52.10;;;;;;5116131;27;45520;-86
2022/09/09 09:14:55;;;;;;;3.35;1.02;;;23.60;51.40;;;;;;5108837;27;45262;-86
2022/09/09 09:17:22;;;;;;;2.08;1.27;;;23.60;51.10;;;;;;5092970;27;45276;-86
2022/09/09 09:19:51;;;;;;;3.00;1.20;;;23.70;51.00;;;;;;5110716;27;45406;-86
2022/09/09 09:22:21;;;;;;;1.63;0.80;;;23.70;50.80;;;;;;5110498;27;46918;-85
2022/09/09 09:24:53;;;;;;;4.07;0.82;;;23.70;50.20;;;;;;5119663;27;45309;-85
2022/09/09 09:27:28;;;;;;;0.80;0.70;;;23.70;49.80;;;;;;5131272;27;45204;-85
2022/09/09 09:29:57;;;;;;;1.67;0.68;;;23.70;49.80;;;;;;5113984;27;45231;-85
2022/09/09 09:32:24;;;;;;;2.72;0.75;;;23.80;49.90;;;;;;5117746;27;47505;-85
2022/09/09 09:34:52;;;;;;;4.22;2.22;;;23.80;49.70;;;;;;5120689;27;45318;-86
2022/09/09 09:37:22;;;;;;;5.63;1.77;;;23.90;49.40;;;;;;5107848;27;45233;-87
2022/09/09 09:39:49;;;;;;;4.03;1.60;;;23.90;49.00;;;;;;5119619;27;45500;-86
2022/09/09 09:42:17;;;;;;;5.50;1.40;;;23.90;49.10;;;;;;5116608;27;46916;-88
2022/09/09 09:44:44;;;;;;;3.67;1.13;;;24.00;49.20;;;;;;5106911;27;45478;-87
2022/09/09 09:47:13;;;;;;;6.68;1.35;;;24.00;49.10;;;;;;5103827;27;45361;-86
2022/09/09 09:49:40;;;;;;;3.45;1.00;;;24.10;49.00;;;;;;5109827;27;45354;-86
2022/09/09 09:52:07;;;;;;;3.63;1.08;;;24.10;48.90;;;;;;5109212;27;45386;-86
2022/09/09 09:54:38;;;;;;;3.40;1.13;;;24.20;48.80;;;;;;5091057;27;45315;-87
2022/09/09 09:57:10;;;;;;;5.88;1.10;;;24.20;48.90;;;;;;5107221;27;44806;-88
2022/09/09 09:59:39;;;;;;;3.35;0.93;;;24.30;49.00;;;;;;5128801;27;45191;-86
2022/09/09 10:02:16;;;;;;;2.78;0.70;;;24.30;48.80;;;;;;5130299;27;47376;-87
2022/09/09 10:04:45;;;;;;;3.10;0.82;;;24.40;48.30;;;;;;5112061;27;45420;-88
2022/09/09 10:07:12;;;;;;;2.00;1.08;;;24.50;48.20;;;;;;5129036;27;45141;-86
2022/09/09 10:09:41;;;;;;;14.60;12.57;;;24.50;48.10;;;;;;5115027;27;45363;-85
2022/09/09 10:12:14;;;;;;;4.60;2.63;;;24.60;48.90;;;;;;5110397;27;46282;-90
2022/09/09 10:14:44;;;;;;;6.18;5.57;;;24.70;47.50;;;;;;5107662;27;45324;-84
2022/09/09 10:17:17;;;;;;;10.82;9.73;;;24.70;48.30;;;;;;5108932;27;45250;-85
2022/09/09 10:19:52;;;;;;;6.43;5.75;;;24.80;47.60;;;;;;5109078;27;45167;-84
2022/09/09 10:22:28;;;;;;;5.97;4.63;;;24.90;47.70;;;;;;5110693;27;47014;-86
2022/09/09 10:25:22;;;;;;;6.80;1.52;;;24.90;46.50;;;;;;5088355;28;45532;-87
2022/09/09 10:28:08;;;;;;;3.42;1.05;;;24.90;45.30;;;;;;5096890;27;45215;-87
2022/09/09 10:30:38;;;;;;;5.47;1.10;;;24.90;45.10;;;;;;5110615;27;45504;-87
2022/09/09 10:33:08;;;;;;;4.38;1.27;;;24.80;44.90;;;;;;5110308;27;45528;-86
2022/09/09 10:35:36;;;;;;;6.40;1.08;;;24.80;44.10;;;;;;5109198;27;45306;-88
2022/09/09 10:38:17;;;;;;;2.63;1.00;;;24.70;43.40;;;;;;5108821;27;45179;-87
2022/09/09 10:41:14;;;;;;;1.73;0.85;;;24.70;43.50;;;;;;5109065;27;45330;-86
2022/09/09 10:44:15;;;;;;;2.60;1.10;;;24.70;43.00;;;;;;5083804;27;45427;-88
2022/09/09 10:47:15;;;;;;;1.85;0.93;;;24.70;43.40;;;;;;5128814;27;45335;-86
2022/09/09 10:49:58;;;;;;;3.10;1.08;;;24.70;43.50;;;;;;5045785;28;45381;-85
2022/09/09 10:52:35;;;;;;;2.70;0.93;;;24.60;43.50;;;;;;5119060;27;45367;-88
2022/09/09 10:55:07;;;;;;;2.50;0.90;;;24.60;43.60;;;;;;5129259;27;46916;-87
2022/09/09 10:57:38;;;;;;;2.17;1.23;;;24.60;43.30;;;;;;5127871;27;45319;-86
2022/09/09 11:00:07;;;;;;;4.90;1.20;;;24.60;43.50;;;;;;5110601;27;45339;-89
2022/09/09 11:02:35;;;;;;;5.38;1.02;;;24.60;43.60;;;;;;5116231;27;45306;-84
2022/09/09 11:05:05;;;;;;;3.80;1.38;;;24.70;43.80;;;;;;5113467;27;47365;-86
2022/09/09 11:07:35;;;;;;;6.43;3.13;;;24.70;44.20;;;;;;5108687;27;45287;-86
2022/09/09 11:10:06;;;;;;;7.15;2.75;;;24.70;44.20;;;;;;5108471;27;45208;-88
2022/09/09 11:12:33;;;;;;;4.38;2.00;;;24.70;44.20;;;;;;5090606;27;45394;-87
2022/09/09 11:15:05;;;;;;;2.90;1.30;;;24.70;44.40;;;;;;5108834;27;45411;-90
2022/09/09 11:18:00;;;;;;;1.98;1.08;;;24.70;44.10;;;;;;5114055;27;45400;-88
2022/09/09 11:20:28;;;;;;;2.33;1.00;;;24.70;43.90;;;;;;5129102;27;45283;-86
2022/09/09 11:22:56;;;;;;;1.63;1.17;;;24.60;44.40;;;;;;5128969;27;45532;-87
2022/09/09 11:25:24;;;;;;;4.20;1.30;;;24.60;45.00;;;;;;5126041;27;45393;-86
2022/09/09 11:28:03;;;;;;;4.43;1.00;;;24.50;45.00;;;;;;5119757;27;45444;-86
2022/09/09 11:30:34;;;;;;;1.85;0.95;;;24.50;45.10;;;;;;5106247;27;45270;-86
2022/09/09 11:33:10;;;;;;;2.88;1.20;;;24.50;45.30;;;;;;5109954;27;45287;-87
2022/09/09 11:35:54;;;;;;;3.78;1.00;;;24.60;45.50;;;;;;5129239;27;46951;-86
2022/09/09 11:38:26;;;;;;;2.67;1.10;;;24.60;45.50;;;;;;5113901;27;45283;-87
2022/09/09 11:41:00;;;;;;;4.93;1.10;;;24.60;45.10;;;;;;5108399;27;45179;-86
2022/09/09 11:43:30;;;;;;;3.35;0.80;;;24.60;45.10;;;;;;5107960;27;45184;-87
2022/09/09 11:45:59;;;;;;;2.75;0.82;;;24.60;44.60;;;;;;5109485;27;45370;-90
2022/09/09 11:48:29;;;;;;;2.58;0.90;;;24.60;44.90;;;;;;5129732;27;45195;-87
2022/09/09 11:51:02;;;;;;;3.30;1.10;;;24.70;45.00;;;;;;5128843;27;45363;-88
2022/09/09 11:53:29;;;;;;;1.85;0.90;;;24.80;45.10;;;;;;5129431;27;45402;-87
2022/09/09 11:56:04;;;;;;;2.95;1.10;;;24.80;45.00;;;;;;5128569;27;45604;-86
2022/09/09 11:58:34;;;;;;;1.85;0.93;;;24.70;45.10;;;;;;5071816;28;45281;-86
2022/09/09 12:01:03;;;;;;;4.30;1.48;;;24.70;45.20;;;;;;5089002;28;45173;-87
2022/09/09 12:03:37;;;;;;;3.13;1.30;;;24.80;45.20;;;;;;5107426;27;45584;-88
2022/09/09 12:06:11;;;;;;;4.72;1.10;;;24.80;45.20;;;;;;5112082;27;45426;-87
2022/09/09 12:08:38;;;;;;;2.08;0.73;;;24.80;44.50;;;;;;5109239;27;45179;-87
2022/09/09 12:11:05;;;;;;;3.03;0.98;;;24.90;44.10;;;;;;5111766;27;45405;-88
2022/09/09 12:13:33;;;;;;;1.40;0.47;;;24.80;43.20;;;;;;5112626;27;45534;-90
2022/09/09 12:16:05;;;;;;;2.47;0.73;;;24.90;43.10;;;;;;5111875;27;47298;-87
2022/09/09 12:18:34;;;;;;;2.58;1.00;;;24.80;42.80;;;;;;5111735;27;44773;-87
2022/09/09 12:21:04;;;;;;;2.67;1.00;;;24.80;42.80;;;;;;5111808;27;45125;-87
2022/09/09 12:23:38;;;;;;;2.00;0.90;;;24.90;42.70;;;;;;5109026;27;45290;-90
2022/09/09 12:26:17;;;;;;;4.25;0.90;;;25.00;42.60;;;;;;5111811;27;47363;-86
2022/09/09 12:28:50;;;;;;;2.88;0.90;;;25.00;42.60;;;;;;5111364;27;45436;-88
2022/09/09 12:31:22;;;;;;;4.03;0.80;;;25.20;42.60;;;;;;5111844;27;45429;-89
2022/09/09 12:33:49;;;;;;;1.60;0.98;;;25.10;42.70;;;;;;5111752;27;45192;-88
2022/09/09 12:36:20;;;;;;;3.28;0.82;;;25.20;42.90;;;;;;5111370;27;46945;-88
2022/09/09 12:38:47;;;;;;;16.20;9.85;;;25.10;42.90;;;;;;5110941;27;45203;-87
2022/09/09 12:41:21;;;;;;;8.98;5.03;;;25.10;42.80;;;;;;5109066;27;45192;-87
2022/09/09 12:43:49;;;;;;;6.07;4.40;;;25.10;42.70;;;;;;5116319;27;45591;-88
2022/09/09 12:46:26;;;;;;;3.47;1.05;;;25.10;43.00;;;;;;5132360;27;45682;-88
2022/09/09 12:48:53;;;;;;;2.13;1.00;;;25.00;43.00;;;;;;5131881;27;45294;-86
2022/09/09 12:51:20;;;;;;;1.00;0.75;;;24.90;43.40;;;;;;5129803;27;45330;-87
2022/09/09 12:53:47;;;;;;;3.05;1.48;;;24.90;43.30;;;;;;5132069;27;45592;-87
2022/09/09 12:56:19;;;;;;;0.95;0.80;;;24.90;43.60;;;;;;5126775;27;45228;-88
2022/09/09 12:58:47;;;;;;;1.45;0.60;;;24.80;43.70;;;;;;5123705;27;45196;-87